• Join FlightAware (Why Join?)
  • Login
  • US Flag 
11:21AM EDT


 

Airport Tracker/Info


-or-


 

Live Flight TrackerFlight Track Log ✈ N70AG ✈ 30-Jun-2013 ✈ KSOP - KSAN

Flight Track Log - Related Links

Times and Time Zones

All times are in EDT time to prevent confusion due to time zone crossing. See the N70AG flight status page for this flight to view local times or setup timezone preferences in your user account.

Time Position Orientation Groundspeed Altitude Reporting Facility
EDT Latitude Longitude Course Direction KTS MPH feet Rate Location/Type
03:37PM 35.0942 -79.0494 185° South 366 421 10,100  Level Washington Center
03:38PM 34.9983 -79.0478 179° South 355 409 12,000 2,160 Climbing Washington Center
03:39PM 35.1556 -80.3720 266° West  Level FlightAware Approximate
03:39PM 34.9022 -79.0514 182° South 348 400 14,600  Level Washington Center
03:40PM 35.1416 -80.5256 260° West  Level FlightAware Approximate
03:40PM 34.8103 -79.0500 179° South 353 406 17,200  Level Washington Center
03:41PM 35.1292 -80.6790 260° West  Level FlightAware Approximate
03:42PM 34.6520 -79.0333 180° South  Level FlightAware Approximate
03:42PM 34.6186 -79.0528 180° South 371 427 43,000  Level Jacksonville Center
03:43PM 34.5103 -79.0553 181° South 382 440 23,800 -9,540 Descending Jacksonville Center
03:44PM 34.4022 -79.0675 185° South 387 445 24,000 960 Climbing Jacksonville Center
03:45PM 34.3019 -79.1322 208° Southwest 388 447 25,800 1,800 Climbing Jacksonville Center
03:46PM 34.2408 -79.2503 238° Southwest 388 447 27,600 2,040 Climbing Jacksonville Center
03:47PM 34.2322 -79.3939 266° West 388 447 29,900 2,220 Climbing Jacksonville Center
03:48PM 34.2358 -79.5219 272° West 395 455 32,100 2,100 Climbing Jacksonville Center
03:49PM 34.2458 -79.6622 275° West 419 482 34,200 2,100 Climbing Jacksonville Center
03:50PM 34.2889 -79.8014 291° West 426 490 36,300 1,380 Climbing Jacksonville Center
03:51PM 34.3358 -79.9328 293° West 431 496 37,000 780 Climbing Jacksonville Center
03:52PM 34.3869 -80.0744 294° West 447 514 37,900 1,320 Climbing Jacksonville Center
03:54PM 34.4681 -80.3125 293° West 451 519 40,500 1,440 Climbing Atlanta Center
03:55PM 34.5161 -80.4514 293° West 448 516 41,700 1,140 Climbing Atlanta Center
03:56PM 34.5639 -80.5856 293° West 448 516 42,800 600 Climbing Atlanta Center
03:57PM 34.6114 -80.7250 293° West 448 516 43,000 60 Climbing Atlanta Center
03:58PM 34.6633 -80.8669 294° West 455 524 43,000  Level Atlanta Center
03:59PM 34.7128 -81.0117 293° West 466 536 43,000  Level Atlanta Center
04:01PM 34.8111 -81.2939 293° West 471 542 43,000  Level Atlanta Center
04:02PM 34.8625 -81.4442 293° West 479 551 43,000  Level Atlanta Center
04:03PM 34.9136 -81.5894 293° West 479 551 43,000  Level Atlanta Center
04:04PM 34.9664 -81.7400 293° West 479 551 43,000  Level Atlanta Center
04:05PM 35.0217 -81.9058 292° West 479 551 43,000  Level Atlanta Center
04:06PM 35.0514 -82.0597 283° West 469 540 43,000  Level Atlanta Center
04:07PM 35.0725 -82.2167 279° West 469 540 43,000  Level Atlanta Center
04:08PM 35.0911 -82.3483 280° West 460 529 43,000  Level Atlanta Center
04:09PM 35.1119 -82.5078 279° West 466 536 43,000  Level Atlanta Center
04:10PM 35.1325 -82.6622 279° West 466 536 43,000  Level Atlanta Center
04:11PM 35.1511 -82.8219 278° West 466 536 43,000  Level Atlanta Center
04:12PM 35.1692 -82.9742 278° West 466 536 43,000  Level Atlanta Center
04:13PM 35.1892 -83.1289 279° West 466 536 43,000  Level Atlanta Center
04:14PM 35.2111 -83.2811 280° West 466 536 43,000  Level Atlanta Center
04:15PM 35.2306 -83.4414 278° West 466 536 43,000  Level Atlanta Center
04:16PM 35.2481 -83.5936 278° West 466 536 43,000  Level Atlanta Center
04:17PM 35.2672 -83.7514 279° West 466 536 43,000  Level Atlanta Center
04:18PM 35.2842 -83.9064 278° West 466 536 43,000  Level Atlanta Center
04:19PM 35.3031 -84.0617 279° West 466 536 43,000  Level Atlanta Center
04:20PM 35.3239 -84.2219 279° West 466 536 43,000  Level Atlanta Center
04:21PM 35.3403 -84.3800 277° West 466 536 43,000  Level Atlanta Center
04:22PM 35.3583 -84.5378 278° West 466 536 43,000  Level Atlanta Center
04:23PM 35.3764 -84.6933 278° West 466 536 43,000  Level Atlanta Center
04:24PM 35.3942 -84.8667 277° West 466 536 43,000  Level Atlanta Center
04:25PM 35.4219 -85.1086 278° West 455 524 43,000  Level Memphis Center
04:26PM 35.4389 -85.2631 278° West 461 531 43,000  Level Memphis Center
04:27PM 35.4556 -85.4200 277° West 461 531 43,000  Level Memphis Center
04:28PM 35.4719 -85.5744 277° West 461 531 43,000  Level Memphis Center
04:29PM 35.4883 -85.7292 277° West 461 531 43,000  Level Memphis Center
04:30PM 35.5044 -85.8811 277° West 461 531 43,000  Level Memphis Center
04:31PM 35.5183 -86.0386 276° West 461 531 43,000  Level Memphis Center
04:32PM 35.5381 -86.1933 279° West 461 531 43,000  Level Memphis Center
04:33PM 35.5511 -86.3328 277° West 461 531 43,000  Level Memphis Center
04:34PM 35.5664 -86.4903 277° West 466 536 43,000  Level Memphis Center
04:35PM 35.5903 -86.6500 280° West 472 543 43,000  Level Memphis Center
04:36PM 35.6139 -86.8175 280° West 487 560 43,000  Level Memphis Center
04:37PM 35.6331 -86.9803 278° West 487 560 43,000  Level Memphis Center
04:38PM 35.6586 -87.1581 280° West 482 555 43,000  Level Memphis Center
04:39PM 35.6794 -87.3233 279° West 487 560 43,000  Level Memphis Center
04:40PM 35.7019 -87.4861 280° West 487 560 43,000  Level Memphis Center
04:41PM 35.7225 -87.6517 279° West 492 566 43,000  Level Memphis Center
04:42PM 35.7425 -87.8122 279° West 492 566 43,000  Level Memphis Center
04:43PM 35.7644 -87.9778 279° West 492 566 43,000  Level Memphis Center
04:44PM 35.7819 -88.1256 278° West 487 560 43,000  Level Memphis Center
04:45PM 35.8056 -88.2836 280° West 480 552 43,000  Level Memphis Center
04:46PM 35.8267 -88.4419 279° West 480 552 43,000  Level Memphis Center
04:47PM 35.8458 -88.6028 278° West 480 552 43,000  Level Memphis Center
04:48PM 35.8647 -88.7639 278° West 480 552 43,000  Level Memphis Center
04:49PM 35.8833 -88.9275 278° West 485 558 43,000  Level Memphis Center
04:50PM 35.9019 -89.0886 278° West 485 558 43,000  Level Memphis Center
04:51PM 35.9222 -89.2547 279° West 485 558 43,000  Level Memphis Center
04:52PM 35.9381 -89.4186 277° West 485 558 43,000  Level Memphis Center
04:53PM 35.9603 -89.5981 279° West 485 558 43,000  Level Memphis Center
04:54PM 35.9778 -89.7619 278° West 485 558 43,000  Level Memphis Center
04:56PM 36.0018 -89.9748 278° West  Level FlightAware Approximate
04:56PM 36.0144 -90.0875 278° West 485 558 43,000  Level Memphis Center
04:57PM 36.0314 -90.2517 277° West 485 558 43,000  Level Memphis Center
04:58PM 36.0503 -90.4083 279° West 485 558 43,000  Level Memphis Center
04:59PM 36.0667 -90.5675 277° West 477 549 43,000  Level Memphis Center
05:00PM 36.0831 -90.7319 277° West 477 549 43,000  Level Memphis Center
05:01PM 36.0992 -90.8939 277° West 482 555 43,000  Level Memphis Center
05:02PM 36.1108 -91.0583 275° West 482 555 43,000  Level Memphis Center
05:03PM 36.1181 -91.2203 273° West 482 555 43,000  Level Memphis Center
05:04PM 36.1189 -91.3797 270° West 476 548 43,000  Level Memphis Center
05:05PM 36.1281 -91.5417 274° West 476 548 43,000  Level Memphis Center
05:06PM 36.1325 -91.7036 272° West 476 548 43,000  Level Memphis Center
05:07PM 36.1350 -91.8656 271° West 476 548 43,000  Level Memphis Center
05:08PM 36.1369 -92.0275 271° West 476 548 43,000  Level Memphis Center
05:09PM 36.1497 -92.1742 276° West 476 548 43,000  Level Memphis Center
05:10PM 36.1556 -92.3339 273° West 476 548 43,000  Level Memphis Center
05:11PM 36.1592 -92.4958 272° West 476 548 43,000  Level Memphis Center
05:12PM 36.1625 -92.6553 272° West 476 548 43,000  Level Memphis Center
05:13PM 36.1656 -92.8200 271° West 476 548 43,000  Level Memphis Center
05:14PM 36.1706 -92.9819 272° West 481 554 43,000  Level Memphis Center
05:15PM 36.1733 -93.1414 271° West 474 545 43,000  Level Memphis Center
05:16PM 36.1761 -93.3036 271° West 474 545 43,000  Level Memphis Center
05:17PM 36.1783 -93.4606 271° West 474 545 43,000  Level Memphis Center
05:18PM 36.1808 -93.6150 271° West 463 533 43,000  Level Memphis Center
05:19PM 36.1803 -93.7844 270° West 458 527 43,000  Level Memphis Center
05:20PM 36.1811 -93.9106 271° West 458 527 43,000  Level Memphis Center
05:21PM 36.1822 -94.0828 271° West 458 527 43,000  Level Memphis Center
05:24PM 36.1911 -94.4742 272° West 451 519 43,000  Level Kansas City Center
05:25PM 36.1939 -94.6306 271° West 453 521 43,000  Level Kansas City Center
05:26PM 36.1942 -94.7869 270° West 454 522 43,000  Level Kansas City Center
05:27PM 36.1947 -94.9433 270° West 453 521 43,000  Level Kansas City Center
05:28PM 36.1958 -95.1022 271° West 445 512 43,000  Level Kansas City Center
05:29PM 36.1947 -95.2511 270° West 436 502 43,000  Level Kansas City Center
05:30PM 36.1944 -95.4033 270° West 441 507 43,000  Level Kansas City Center
05:31PM 36.1956 -95.5589 271° West 447 514 43,000  Level Kansas City Center
05:32PM 36.1956 -95.7436 270° West 449 517 43,000  Level Kansas City Center
05:33PM 36.1753 -95.9061 261° West 456 525 43,000  Level Kansas City Center
05:34PM 36.1497 -96.0603 258° West 455 524 43,000  Level Kansas City Center
05:35PM 36.1244 -96.2133 258° West 454 522 43,000  Level Kansas City Center
05:36PM 36.0981 -96.3672 258° West 456 525 43,000  Level Kansas City Center
05:37PM 36.0722 -96.5197 258° West 453 521 43,000  Level Kansas City Center
05:38PM 36.0433 -96.6917 258° West 454 522 43,000  Level Kansas City Center
05:39PM 36.0164 -96.8411 257° West 450 518 43,000  Level Kansas City Center
05:40PM 35.9894 -96.9925 258° West 452 520 43,000  Level Kansas City Center
05:41PM 35.9639 -97.1431 258° West 453 521 43,000  Level Kansas City Center
05:42PM 35.9372 -97.2936 258° West 452 520 43,000  Level Kansas City Center
05:43PM 35.9042 -97.4731 257° West 452 520 43,000  Level Kansas City Center
05:44PM 35.8775 -97.6222 258° West 451 519 43,000  Level Kansas City Center
05:45PM 35.8603 -97.7131 257° West 467 537 43,000  Level Fort Worth Center
05:46PM 35.8286 -97.8744 256° West 455 524 43,000  Level Fort Worth Center
05:47PM 35.8031 -98.0225 258° West 448 516 43,000  Level Fort Worth Center
05:48PM 35.7856 -98.1708 262° West 448 516 43,000  Level Fort Worth Center
05:49PM 35.7636 -98.3217 260° West 448 516 43,000  Level Fort Worth Center
05:49PM 35.7586 -98.3781 264° West 447 514 43,000  Level Kansas City Center
05:50PM 35.7342 -98.5614 261° West 450 518 43,000  Level Kansas City Center
05:51PM 35.7164 -98.7156 262° West 452 520 43,000  Level Kansas City Center
05:53PM 35.7008 -98.8689 263° West 449 517 43,000  Level Kansas City Center
05:54PM 35.6842 -99.0242 263° West 450 518 43,000  Level Kansas City Center
05:55PM 35.6678 -99.1792 263° West 451 519 43,000  Level Kansas City Center
05:56PM 35.6511 -99.3342 263° West 452 520 43,000  Level Kansas City Center
05:58PM 35.6183 -99.6428 263° West 452 520 43,000  Level Albuquerque Center
05:59PM 35.6003 -99.7992 262° West 457 526 43,000  Level Albuquerque Center
06:00PM 35.5836 -99.9531 262° West 455 524 43,000  Level Albuquerque Center
06:02PM 35.5494 -100.2653 262° West 460 529 43,000  Level Albuquerque Center
06:03PM 35.5378 -100.4547 266° West 479 551 43,000  Level Albuquerque Center
06:04PM 35.5083 -100.6003 256° West 447 514 43,000  Level Albuquerque Center
06:05PM 35.4919 -100.7356 262° West 449 517 43,000  Level Albuquerque Center
06:06PM 35.4703 -100.9172 262° West 450 518 43,000  Level Albuquerque Center
06:07PM 35.4511 -101.0689 261° West 451 519 43,000  Level Albuquerque Center
06:08PM 35.4328 -101.2197 262° West 450 518 43,000  Level Albuquerque Center
06:09PM 35.4156 -101.3625 262° West 453 521 43,000  Level Albuquerque Center
06:10PM 35.3953 -101.5164 261° West 456 525 43,000  Level Albuquerque Center
06:11PM 35.3719 -101.7025 261° West 455 524 43,000  Level Albuquerque Center
06:12PM 35.3511 -101.8556 261° West 453 521 43,000  Level Albuquerque Center
06:13PM 35.3322 -102.0047 261° West 459 528 43,000  Level Albuquerque Center
06:14PM 35.3122 -102.1583 261° West 461 531 43,000  Level Albuquerque Center
06:15PM 35.2917 -102.3094 261° West 455 524 43,000  Level Albuquerque Center
06:16PM 35.2714 -102.4614 261° West 455 524 43,000  Level Albuquerque Center
06:17PM 35.2456 -102.6458 260° West 459 528 43,000  Level Albuquerque Center
06:18PM 35.2247 -102.7983 261° West 457 526 43,000  Level Albuquerque Center
06:19PM 35.2036 -102.9506 260° West 455 524 43,000  Level Albuquerque Center
06:20PM 35.1831 -103.0911 260° West 453 521 43,000  Level Albuquerque Center
06:21PM 35.1586 -103.2731 261° West 458 527 43,000  Level Albuquerque Center
06:22PM 35.1356 -103.4272 260° West 458 527 43,000  Level Albuquerque Center
06:23PM 35.1144 -103.5794 260° West 453 521 43,000  Level Albuquerque Center
06:24PM 35.0919 -103.7314 260° West 451 519 43,000  Level Albuquerque Center
06:25PM 35.0683 -103.8869 260° West 456 525 43,000  Level Albuquerque Center
06:26PM 35.0433 -104.0447 259° West 463 533 43,000  Level Albuquerque Center
06:27PM 35.0186 -104.2058 259° West 470 541 43,000  Level Albuquerque Center
06:28PM 34.9942 -104.3664 260° West 471 542 43,000  Level Albuquerque Center
06:30PM 34.9711 -104.5236 260° West 467 537 43,000  Level Albuquerque Center
06:31PM 34.9312 -104.6575 260° West  Level FlightAware Approximate
06:32PM 34.9233 -104.8394 260° West 469 540 43,000  Level Albuquerque Center
06:33PM 34.8981 -104.9972 259° West 470 541 43,000 60 Level Albuquerque Center
06:34PM 34.8736 -105.1506 259° West 462 532 43,200 420 Climbing Albuquerque Center
06:35PM 34.8494 -105.3058 259° West 461 531 43,900 720 Climbing Albuquerque Center
06:36PM 34.8203 -105.4875 259° West 463 533 44,700 720 Climbing Albuquerque Center
06:37PM 34.7956 -105.6400 259° West 459 528 45,400 600 Climbing Albuquerque Center
06:38PM 34.7708 -105.7939 259° West 458 527 46,000 480 Climbing Albuquerque Center
06:39PM 34.7444 -105.9458 258° West 457 526 46,500 480 Climbing Albuquerque Center
06:40PM 34.7200 -106.0992 259° West 458 527 47,000 120 Climbing Albuquerque Center
06:42PM 34.6664 -106.4125 258° West 462 532 47,000  Level Albuquerque Center
06:43PM 34.6394 -106.5689 258° West 466 536 47,000  Level Albuquerque Center
06:44PM 34.6117 -106.7256 258° West 470 541 47,000  Level Albuquerque Center
06:45PM 34.5847 -106.8833 258° West 473 544 47,000  Level Albuquerque Center
06:46PM 34.5581 -107.0397 258° West 474 545 47,000  Level Albuquerque Center
06:47PM 34.5303 -107.1958 258° West 471 542 47,000  Level Albuquerque Center
06:48PM 34.5031 -107.3508 258° West 469 540 47,000  Level Albuquerque Center
06:49PM 34.4758 -107.5061 258° West 469 540 47,000  Level Albuquerque Center
06:50PM 34.4483 -107.6594 258° West 467 537 47,000  Level Albuquerque Center
06:51PM 34.4200 -107.8156 258° West 470 541 47,000  Level Albuquerque Center
06:52PM 34.3922 -107.9711 258° West 473 544 47,000  Level Albuquerque Center
06:53PM 34.3569 -108.1578 257° West 474 545 47,000  Level Albuquerque Center
06:54PM 34.3286 -108.3156 258° West 476 548 47,000  Level Albuquerque Center
06:56PM 34.2689 -108.6322 257° West 474 545 47,000  Level Albuquerque Center
06:57PM 34.2408 -108.7853 258° West 474 545 47,000  Level Albuquerque Center
06:58PM 34.2117 -108.9339 257° West 467 537 47,000  Level Albuquerque Center
06:59PM 34.1828 -109.0822 257° West 462 532 47,000  Level Albuquerque Center
07:00PM 34.1536 -109.2328 257° West 463 533 47,000  Level Albuquerque Center
07:01PM 34.1189 -109.4122 257° West 464 534 47,000  Level Albuquerque Center
07:02PM 34.0886 -109.5608 256° West 464 534 47,000  Level Albuquerque Center
07:03PM 34.0603 -109.7067 257° West 465 535 47,000  Level Albuquerque Center
07:04PM 34.0261 -109.8778 256° West 467 537 47,000  Level Albuquerque Center
07:05PM 33.9992 -110.0128 256° West 467 537 47,000  Level Albuquerque Center
07:06PM 33.9667 -110.1658 256° West 474 545 47,000  Level Albuquerque Center
07:07PM 33.9297 -110.3464 256° West 471 542 47,000  Level Albuquerque Center
07:08PM 33.9006 -110.4928 257° West 466 536 47,000  Level Albuquerque Center
07:09PM 33.8686 -110.6442 256° West 467 537 47,000  Level Albuquerque Center
07:10PM 33.8381 -110.7950 256° West 466 536 47,000  Level Albuquerque Center
07:11PM 33.8061 -110.9467 256° West 466 536 47,000  Level Albuquerque Center
07:13PM 33.7750 -111.0958 256° West 462 532 47,000  Level Albuquerque Center
07:14PM 33.7425 -111.2458 255° West 463 533 47,000  Level Albuquerque Center
07:15PM 33.7103 -111.3969 256° West 464 534 47,000  Level Albuquerque Center
07:16PM 33.6781 -111.5469 256° West 462 532 47,000  Level Albuquerque Center
07:17PM 33.6450 -111.6981 255° West 464 534 47,000  Level Albuquerque Center
07:18PM 33.6044 -111.8811 255° West 467 537 47,000  Level Albuquerque Center
07:19PM 33.5714 -112.0319 255° West 466 536 47,000  Level Albuquerque Center
07:20PM 33.5378 -112.1833 255° West 468 539 47,000  Level Albuquerque Center
07:21PM 33.5047 -112.3364 256° West 473 544 47,000  Level Albuquerque Center
07:22PM 33.4706 -112.4872 255° West 469 540 47,000  Level Albuquerque Center
07:23PM 33.4353 -112.6483 255° West 471 542 47,000  Level Albuquerque Center
07:24PM 33.4000 -112.7989 254° West 472 543 47,000  Level Albuquerque Center
07:25PM 33.3658 -112.9494 255° West 472 543 47,000 -60 Level Albuquerque Center
07:26PM 33.3308 -113.1028 255° West 478 550 46,900  Descending Albuquerque Center
07:27PM 33.2958 -113.2536 255° West 476 548 47,000  Climbing Albuquerque Center
07:28PM 33.2603 -113.4056 254° West 477 549 47,000  Level Albuquerque Center
07:29PM 33.2181 -113.5872 255° West 476 548 47,000  Level Albuquerque Center
07:30PM 33.1828 -113.7394 255° West 477 549 47,000 -60 Level Albuquerque Center
07:31PM 33.1461 -113.8922 254° West 480 552 46,900  Descending Albuquerque Center
07:32PM 33.1097 -114.0447 254° West 480 552 47,000 -540 Climbing Albuquerque Center
07:33PM 33.0744 -114.1975 255° West 479 551 45,900 -1,320 Descending Albuquerque Center
07:34PM 33.0533 -114.3572 261° West 487 560 44,400 -1,500 Descending Albuquerque Center
07:35PM 33.0250 -114.5256 259° West 488 562 42,800 -1,980 Descending Los Angeles Center
07:36PM 33.0058 -114.7175 263° West 485 558 40,200 -2,520 Descending Los Angeles Center
07:37PM 32.9828 -114.8808 260° West 496 571 37,700 -2,400 Descending Los Angeles Center
07:38PM 32.9589 -115.0456 260° West 505 581 35,300 -2,460 Descending Los Angeles Center
07:39PM 32.9531 -115.2142 268° West 512 589 32,700 -2,520 Descending Los Angeles Center
07:40PM 32.9500 -115.3858 269° West 520 598 30,200 -2,460 Descending Los Angeles Center
07:41PM 32.9469 -115.5556 269° West 513 590 27,700 -2,760 Descending Los Angeles Center
07:42PM 32.9453 -115.7444 269° West 480 552 24,500 -3,000 Descending Los Angeles Center
07:43PM 32.9428 -115.8958 269° West 462 532 21,600 -2,880 Descending Los Angeles Center
07:44PM 32.9411 -116.0436 269° West 451 519 18,600 -3,000 Descending Los Angeles Center
07:45PM 32.9297 -116.1822 264° West 425 489 15,500 -2,460 Descending Los Angeles Center
07:46PM 32.9072 -116.3036 258° West 402 463 13,600 -1,440 Descending Los Angeles Center
07:47PM 32.8203 -116.4136 227° Southwest 388 447 12,600 -1,500 Descending Los Angeles Center
07:49PM 32.7717 -116.5044 238° Southwest 363 418 10,500 -1,920 Descending Los Angeles Center
07:50PM 32.7506 -116.6106 257° West 337 388 8,700 -1,860 Descending Los Angeles Center
07:51PM 32.7314 -116.7097 257° West 316 364 6,700 -1,860 Descending Los Angeles Center
07:52PM 32.7214 -116.8047 263° West 298 343 4,900 -840 Descending Los Angeles Center
07:53PM 32.7164 -116.9128 267° West 278 320 5,000 -540 Climbing Los Angeles Center
07:54PM 32.7111 -117.0006 266° West 270 311 3,800 -1,260 Descending Los Angeles Center
07:55PM 32.7067 -117.0728 266° West 233 268 2,500 -1,320 Descending Los Angeles Center
07:56PM 32.7189 -117.1314 284° West 195 224 1,200 -1,080 Descending Los Angeles Center
07:57PM 32.7297 -117.1767 286° West 149 171 300 -900 Descending Los Angeles Center
07:59PM 32.7333 -117.1833 281° West  Level FlightAware Approximate